Aeroporto :
LOGIN :

Iscrizione | Disclaimer

   EN    FR    IT 

 










Sommario :    VFR   VFR Marginale   IFR   IFR Intensivo   IFR Molto Intensivo
Visibilità : 
Base nubi : 
>= 8 km
>= 3000ft
5 / 8 km
1000 / 3000 ft
1500m / 5 km
500 / 1000 ft
800 / 1500m
200 / 500 ft
< 800m
< 200 ft
Simboli :   Temporali  Nebbia  Neve Forte  Precipitazioni Forti  Vento > 20 kt
SIGMETs :   Varie  Temporali  Ghiacco  Turbolenza  Onda orograficha  Ceneri Vulcaniche







- Altitudine del aeroporto : 106 ft
- Codice IATA : XDA
- Carte del aeroporto


LFBY - Dax Seyresse

ULTIMO METAR :
  • 261800Z AUTO 03007KT 350V060 9999 // ////// 16/M02 Q1026

METARs OBSOLETI :
  • 261730Z AUTO 05010KT 9999 // ////// 16/M02 Q1026
  • 261700Z AUTO 04010KT 360V060 9999 // ////// 17/M02 Q1025
  • 261630Z AUTO 05010KT 010V090 9999 // ////// 17/M02 Q1026
  • 261600Z 05011KT 010V090 CAVOK 17/M03 Q1026

Previsioni scadute.
Nessun NOTAM noto per questo aeroporto.
1 SIGMET conosciuto per la FIR Bordeaux (LFBB) :
 
Turbolenza severa
LFBB SIGMET 5 VALID 261600/262000 LFPW
LFBB BORDEAUX FIR/UIR SEV TURB FCST WI N4245 E00230 - N4215 E00230 - N4230 E00145 - N4245 E00200 - N4245 E00230 SFC/FL070 STNR WKN=



MetMap, La meteo Aeronautica in un colpo d'occhio ! - Copyright ORBIFLY Dicembre 2007 - Disclaimer

ORBIFLY MET'MAP TEAM :

Programmazione e sviluppo : Alexandra Zaïnal
Concezione e sviluppo : Baudouin d'Aumeries
Co-Programmazione e sviluppo : Marc-Olivier Méhu
Supporto tecnico e logistico : Manuel Goepfert
Aiuto per la traduzione : Arnaldo La Scala

Contatto : metmap@orbifly.com




FONTI E CREDITI :

   NOAA